Airfield :
LOGIN :

Register | Disclaimer

   EN    FR    IT 

 










Legend :    VFR   Marginal VFR   IFR   Intensive IFR   Very Intensive IFR
Visi :
Ceiling :
>= 8 km
>= 3000ft
5 to 8 km
1000 to 3000 ft
1500m to 5 km
500 to 1000 ft
800 to 1500m
200 to 500 ft
< 800m
< 200 ft
Symbols :   Thunderstorms  Fog  Heavy snow  Heavy precipitations  Wind > 20 kt
SIGMETs :     Misc.  Thunderstorms  Icing  Turbulence  Mountain Waves  Volcanic Ashes






- Airport Elevation : 1674 ft
- IATA code : BRN


LSZB - Bern Belp

CURRENT METAR :
  • 070950Z 28011KT 9999 FEW036 SCT047 BKN055 10/07 Q1016 NOSIG

EXPIRED METARs :
  • 070920Z 28012KT 9999 -RA FEW014 SCT037 BKN041 08/06 Q1015 NOSIG
  • 070850Z 28011KT 9999 RA SCT020 BKN033 BKN046 11/06 Q1014 NOSIG
  • 070820Z 27011KT 240V300 9999 -RA FEW018 SCT050 BKN060 09/07 Q1013 NOSIG
  • 070750Z 27007KT 230V310 7000 RA SCT017 BKN024 09/07 Q1013 NOSIG
  • 070720Z 32008KT 9999 RA SCT015 BKN020 09/08 Q1013 NOSIG

TAF TAF LSZB
Valid from the 07 at 09:00 until the 07 at 18:00 UTC


070825Z 0709/0718 27007KT 9999 SCT017 BKN024
PROB40
TEMPO 0709/0712 28015G28KT 4500 SHRA FEW030TCU
ATIS : +41 22 417 40 76



MET'MAP, your aeronautical weather chart ! - Copyright ORBIFLY December 2007 - Disclaimer

ORBIFLY MET'MAP TEAM :

Programming & Development : Alexandra Zaïnal
Concept & original design : Baudouin d'Aumeries
Assistance for programming : Marc-Olivier Méhu
Technical & hardware support : Manuel Goepfert

Contact : metmap@orbifly.com




SOURCES & CREDITS :

   NOAA